El Rito, NM (87530)

3:04 PM MDT on July 30, 2016 (GMT -0600)
El Ojito | | Change Station
Active Advisory: Areal Flood Advisory

Elev 7359 ft 36.43 °N, 106.04 °W | Updated 1 minute ago

Clear
Clear
89.2 °F
Feels Like 86 °F
N
7.0
Wind Variable Wind from ESE
Gusts 11.0 mph

Today
High -- | Low -- °F
--% Chance of Precip.
Yesterday
High -- | Low -- °F
Precip. -- in
Pressure 30.23 in
Visibility 10.0 miles
Clouds Clear
Heat Index 86 °F
Dew Point 47 °F
Humidity 23%
Rainfall 0.00 in
Snow Depth Not available.
6:10 AM 8:11 PM
Waning Crescent, 11% visible
METAR KLAM 302055Z AUTO 18005KT 10SM CLR 26/07 A3023 RMK AO2 T02570070
Pressure 30.23 in
Visibility 10.0 miles
Clouds Clear
Heat Index 86 °F
Dew Point 47 °F
Humidity 23%
Rainfall 0.00 in
Snow Depth Not available.
6:10 AM 8:11 PM
Waning Crescent, 11% visible
METAR KLAM 302055Z AUTO 18005KT 10SM CLR 26/07 A3023 RMK AO2 T02570070

10-Day Weather Forecast

Almanac

Astronomy

Jul. 30, 2016 Rise Set
Actual Time
Civil Twilight
Nautical Twilight
Astronomical Twilight
Moon
Length of Visible Light
Length of Day
Tomorrow will be .
, % of the Moon is Illuminated

Today's Extremes

State Highs State Lows

Community

WunderPhotos

Upload Photos

1,928,645 photos uploaded!

WunderBlog® & News

Nearby

Air Quality

  Air Quality AQ Index Pollutant
Not available.

Snow Depth

Station Depth Elevation

Earthquake Activity

City Distance Mag. Time & Date
Minimum magnitude displayed is 2.5.

Coastal Water Temperatures

Place Temperature

Stations

Nearby Weather Stations

Station Location Temp. Windchill Dew Point Humidity Wind Precip. Elev Updated Type
                   

Watches & Warnings

Areal Flood Advisory
Issued: 2:38 PM MDT Jul. 30, 2016 – National Weather Service

The National Weather Service in Albuquerque has issued a

* Arroyo and Small Stream Flood Advisory for...
north central Rio Arriba County in north central New Mexico...

* until 430 PM MDT

* at 237 PM MDT... National Weather Service Doppler radar indicated
heavy rain due to thunderstorms. South of San Miguel... radar
estimates that almost two inches of rain have fallen.

* Flooding will remain over mainly rural areas of north central Rio
Arriba County.

Precautionary/preparedness actions...

Both localized and distant heavy rainfall will create dangerous flows
in arroyos and over low water crossings.
Do not attempt to drive through these waters. Water in arroyos may
travel many miles and take hours to reach
your location from upstream rain areas.

Do not Camp along streams and rivers. Remain alert when hiking in
steep... narrow canyons.

Do not drive your vehicle into areas where the water covers the
roadway. The water depth may be too great to allow your car to cross
safely.


Lat... Lon 3689 10609 3684 10600 3678 10610 3674 10621
      3681 10626 3684 10622 3687 10616